createdAt,value
2022-12-12T00:01:29.705Z,21.25
2022-12-12T00:04:06.692Z,22.75
2022-12-12T00:06:44.913Z,22.75
2022-12-12T00:09:20.513Z,21.65
2022-12-12T00:11:55.597Z,23.65
2022-12-12T00:14:30.944Z,23.38
2022-12-12T00:17:06.092Z,23.83
2022-12-12T00:19:41.032Z,22.07
2022-12-12T00:22:18.697Z,22.67
2022-12-12T00:24:53.186Z,22.90
2022-12-12T00:27:27.447Z,23.35
2022-12-12T00:30:03.544Z,22.67
2022-12-12T00:35:14.937Z,20.65
2022-12-12T00:37:53.152Z,21.77
2022-12-12T00:40:28.373Z,21.55
2022-12-12T00:43:04.291Z,21.58
2022-12-12T00:45:38.250Z,21.42
2022-12-12T00:48:12.707Z,22.80
2022-12-12T00:50:47.621Z,22.67
2022-12-12T00:53:25.166Z,21.45
2022-12-12T00:56:00.286Z,20.75
2022-12-12T00:58:34.298Z,21.97
2022-12-12T01:01:12.156Z,21.67
2022-12-12T01:03:45.388Z,21.37
2022-12-12T01:06:20.193Z,21.33
2022-12-12T01:08:57.766Z,20.13
2022-12-12T01:11:32.054Z,20.85
2022-12-12T01:14:06.538Z,19.90
2022-12-12T01:16:47.848Z,21.02
2022-12-12T01:19:21.196Z,22.13
2022-12-12T01:21:56.049Z,21.50
2022-12-12T01:24:33.174Z,20.53
2022-12-12T01:27:07.519Z,21.95
2022-12-12T01:29:43.342Z,20.73
2022-12-12T01:32:18.866Z,22.52
2022-12-12T01:34:53.601Z,19.25
2022-12-12T01:37:30.976Z,19.90
2022-12-12T01:40:10.175Z,20.08
2022-12-12T01:42:44.572Z,19.70
2022-12-12T01:45:57.675Z,18.65
2022-12-12T01:48:33.915Z,21.87
2022-12-12T01:51:09.613Z,19.23
2022-12-12T01:53:45.416Z,19.13
2022-12-12T01:56:24.140Z,19.92
2022-12-12T01:58:58.669Z,19.45
2022-12-12T02:01:33.385Z,18.23
2022-12-12T02:04:08.195Z,19.98
2022-12-12T02:06:43.869Z,18.45
2022-12-12T02:09:17.490Z,19.92
2022-12-12T02:11:55.730Z,19.40
2022-12-12T02:14:30.152Z,17.30
2022-12-12T02:17:24.793Z,19.63
2022-12-12T02:20:34.806Z,18.15
2022-12-12T02:23:42.116Z,18.85
2022-12-12T02:26:52.978Z,18.13
2022-12-12T02:29:47.211Z,18.53
2022-12-12T02:32:28.117Z,18.08
2022-12-12T02:35:07.018Z,18.25
2022-12-12T02:37:42.950Z,17.90
2022-12-12T02:40:19.033Z,18.05
2022-12-12T02:45:32.866Z,17.50
2022-12-12T02:48:11.767Z,19.10
2022-12-12T02:50:47.437Z,19.40
2022-12-12T02:53:22.501Z,17.92
2022-12-12T02:56:05.531Z,18.05
2022-12-12T02:58:41.082Z,18.05
2022-12-12T03:01:18.791Z,18.63
2022-12-12T03:04:09.407Z,18.15
2022-12-12T03:07:07.017Z,19.85
2022-12-12T03:09:49.474Z,17.50
2022-12-12T03:12:27.828Z,18.10
2022-12-12T03:15:04.506Z,19.00
2022-12-12T03:17:43.057Z,19.67
2022-12-12T03:20:23.140Z,18.20
2022-12-12T03:22:59.609Z,17.77
2022-12-12T03:25:37.132Z,19.13
2022-12-12T03:28:16.137Z,18.10
2022-12-12T03:30:52.021Z,18.83
2022-12-12T03:33:28.376Z,18.90
2022-12-12T03:36:03.556Z,18.97
2022-12-12T03:38:39.628Z,18.63
2022-12-12T03:43:53.342Z,17.33
2022-12-12T03:46:30.982Z,18.90
2022-12-12T03:49:07.253Z,19.40
2022-12-12T03:51:47.323Z,17.40
2022-12-12T03:54:23.437Z,20.40
2022-12-12T03:59:33.909Z,18.03
2022-12-12T04:02:11.176Z,17.30
2022-12-12T04:04:48.333Z,18.13
2022-12-12T04:07:27.528Z,18.48
2022-12-12T04:10:14.614Z,17.25
2022-12-12T04:13:03.767Z,17.63
2022-12-12T04:16:08.475Z,17.65
2022-12-12T04:18:47.301Z,17.35
2022-12-12T04:21:37.380Z,18.25
2022-12-12T04:24:18.925Z,17.20
2022-12-12T04:26:56.928Z,17.75
2022-12-12T04:29:42.220Z,18.35
2022-12-12T04:32:19.132Z,19.08
2022-12-12T04:34:55.186Z,18.40
2022-12-12T04:40:10.036Z,18.05
2022-12-12T04:42:46.875Z,18.70
2022-12-12T04:45:23.667Z,17.10
2022-12-12T04:47:58.657Z,18.33
2022-12-12T04:50:34.447Z,19.52
2022-12-12T04:53:18.306Z,16.95
2022-12-12T04:55:58.057Z,17.88
2022-12-12T04:58:33.693Z,18.65
2022-12-12T05:01:11.528Z,17.92
2022-12-12T05:03:50.986Z,17.60
2022-12-12T05:06:28.262Z,17.90
2022-12-12T05:09:02.437Z,17.92
2022-12-12T05:11:40.608Z,17.92
2022-12-12T05:14:15.803Z,17.20
2022-12-12T05:16:51.383Z,16.93
2022-12-12T05:19:26.482Z,17.40
2022-12-12T05:22:01.302Z,17.73
2022-12-12T05:24:36.017Z,16.80
2022-12-12T05:27:14.092Z,18.30
2022-12-12T05:29:48.708Z,17.50
2022-12-12T05:32:23.481Z,17.92
2022-12-12T05:34:58.116Z,17.53
2022-12-12T05:37:32.501Z,17.98
2022-12-12T05:40:11.765Z,16.37
2022-12-12T05:42:49.330Z,17.93
2022-12-12T05:45:26.697Z,18.23
2022-12-12T05:48:02.101Z,16.88
2022-12-12T05:50:36.501Z,16.85
2022-12-12T05:53:12.564Z,17.27
2022-12-12T05:55:47.329Z,16.30
2022-12-12T05:58:24.407Z,15.75
2022-12-12T06:01:03.221Z,16.30
2022-12-12T06:03:38.187Z,15.45
2022-12-12T06:06:12.968Z,14.90
2022-12-12T06:08:46.398Z,15.35
2022-12-12T06:11:21.889Z,15.20
2022-12-12T06:14:00.537Z,14.70
2022-12-12T06:16:36.291Z,16.45
2022-12-12T06:19:10.857Z,16.63
2022-12-12T06:21:46.217Z,15.45
2022-12-12T06:24:20.955Z,15.85
2022-12-12T06:26:53.521Z,15.80
2022-12-12T06:29:30.998Z,16.23
2022-12-12T06:32:06.020Z,15.52
2022-12-12T06:34:41.851Z,15.30
2022-12-12T06:37:17.462Z,15.38
2022-12-12T06:39:52.230Z,15.35
2022-12-12T06:42:25.989Z,14.73
2022-12-12T06:45:02.982Z,14.73
2022-12-12T06:47:37.837Z,16.43
2022-12-12T06:50:13.079Z,15.75
2022-12-12T06:52:47.895Z,15.98
2022-12-12T06:55:22.929Z,15.55
2022-12-12T06:57:57.608Z,14.90
2022-12-12T07:00:34.775Z,17.50
2022-12-12T07:03:10.078Z,16.00
2022-12-12T07:05:44.117Z,15.23
2022-12-12T07:08:19.226Z,15.63
2022-12-12T07:10:53.664Z,15.37
2022-12-12T07:13:27.920Z,15.88
2022-12-12T07:16:05.533Z,16.55
2022-12-12T07:18:41.321Z,15.75
2022-12-12T07:21:18.394Z,16.15
2022-12-12T07:23:55.190Z,16.00
2022-12-12T07:26:29.429Z,16.75
2022-12-12T07:29:06.845Z,15.30
2022-12-12T07:31:45.047Z,16.63
2022-12-12T07:34:21.468Z,16.92
2022-12-12T07:37:03.163Z,16.00
2022-12-12T07:39:38.927Z,15.40
2022-12-12T07:42:14.136Z,13.57
2022-12-12T07:44:50.848Z,14.20
2022-12-12T07:47:26.406Z,16.40
2022-12-12T07:50:02.355Z,14.40
2022-12-12T07:52:37.060Z,14.52
2022-12-12T07:55:13.257Z,16.13
2022-12-12T07:57:52.076Z,14.43
2022-12-12T08:00:27.901Z,14.52
2022-12-12T08:03:07.894Z,15.40
2022-12-12T08:05:44.060Z,13.07
2022-12-12T08:08:19.381Z,14.10
2022-12-12T08:10:55.214Z,13.68
2022-12-12T08:13:30.606Z,13.40
2022-12-12T08:16:05.730Z,12.85
2022-12-12T08:18:43.032Z,12.18
2022-12-12T08:21:25.148Z,11.85
2022-12-12T08:24:00.607Z,12.40
2022-12-12T08:26:35.859Z,12.40
2022-12-12T08:29:12.182Z,12.40
2022-12-12T08:31:47.561Z,12.82
2022-12-12T08:34:26.402Z,13.05
2022-12-12T08:37:02.201Z,13.33
2022-12-12T08:39:37.295Z,11.75
2022-12-12T08:42:12.621Z,11.43
2022-12-12T08:44:48.871Z,10.57
2022-12-12T08:47:24.187Z,11.73
2022-12-12T08:49:59.421Z,11.03
2022-12-12T08:52:33.421Z,10.90
2022-12-12T08:55:10.649Z,11.85
2022-12-12T08:57:46.977Z,11.65
2022-12-12T09:00:23.237Z,11.90
2022-12-12T09:02:58.086Z,11.98
2022-12-12T09:05:35.912Z,12.35
2022-12-12T09:08:13.495Z,12.70
2022-12-12T09:10:51.900Z,13.03
2022-12-12T09:13:35.819Z,12.80
2022-12-12T09:16:11.259Z,12.07
2022-12-12T09:18:49.157Z,12.20
2022-12-12T09:21:26.825Z,12.55
2022-12-12T09:24:02.741Z,13.18
2022-12-12T09:26:36.061Z,13.18
2022-12-12T09:29:09.246Z,13.15
2022-12-12T09:31:45.829Z,13.38
2022-12-12T09:34:19.722Z,13.45
2022-12-12T09:36:58.430Z,13.32
2022-12-12T09:39:34.038Z,14.35
2022-12-12T09:42:15.504Z,14.80
2022-12-12T09:44:51.304Z,13.93
2022-12-12T09:47:33.863Z,13.30
2022-12-12T09:50:10.271Z,14.73
2022-12-12T09:52:49.112Z,14.20
2022-12-12T09:55:40.983Z,14.27
2022-12-12T09:58:21.115Z,13.77
2022-12-12T10:00:59.160Z,13.65
2022-12-12T10:03:36.757Z,13.07
2022-12-12T10:06:36.573Z,14.25
2022-12-12T10:09:19.721Z,15.02
2022-12-12T10:11:57.264Z,14.77
2022-12-12T10:14:36.508Z,17.33
2022-12-12T10:17:12.197Z,17.93
2022-12-12T10:19:50.464Z,14.23
2022-12-12T10:22:30.325Z,13.82
2022-12-12T10:25:14.939Z,13.32
2022-12-12T10:27:49.815Z,14.95
2022-12-12T10:30:24.989Z,15.40
2022-12-12T10:33:10.559Z,14.27
2022-12-12T10:35:51.502Z,14.32
2022-12-12T10:38:33.656Z,14.20
2022-12-12T10:41:15.082Z,15.17
2022-12-12T10:43:51.502Z,14.60
2022-12-12T10:46:28.936Z,14.95
2022-12-12T10:49:06.443Z,14.70
2022-12-12T10:51:41.608Z,15.48
2022-12-12T10:54:18.129Z,13.87
2022-12-12T10:57:20.464Z,14.15
2022-12-12T10:59:57.613Z,15.70
2022-12-12T11:02:38.182Z,14.82
2022-12-12T11:05:14.393Z,14.18
2022-12-12T11:07:48.730Z,14.00
2022-12-12T11:10:33.617Z,13.43
2022-12-12T11:13:19.312Z,13.60
2022-12-12T11:15:57.111Z,13.05
2022-12-12T11:18:31.973Z,12.68
2022-12-12T11:21:09.460Z,12.40
2022-12-12T11:23:44.966Z,12.30
2022-12-12T11:26:20.026Z,12.45
2022-12-12T11:29:01.054Z,11.30
2022-12-12T11:31:37.029Z,9.98
2022-12-12T11:34:12.316Z,10.90
2022-12-12T11:36:46.681Z,11.05
2022-12-12T11:39:27.370Z,10.60
2022-12-12T11:42:03.484Z,10.40
2022-12-12T11:47:28.395Z,10.98
2022-12-12T11:50:09.325Z,10.20
2022-12-12T11:52:45.885Z,10.40
2022-12-12T11:55:22.304Z,11.30
2022-12-12T11:58:14.070Z,10.40
2022-12-12T12:00:54.940Z,10.33
2022-12-12T12:03:47.468Z,9.57
2022-12-12T12:06:33.100Z,9.02
2022-12-12T12:09:18.778Z,8.48
2022-12-12T12:11:58.568Z,9.67
2022-12-12T12:14:52.069Z,9.45
2022-12-12T12:17:32.506Z,9.90
2022-12-12T12:20:10.282Z,9.55
2022-12-12T12:22:50.166Z,8.70
2022-12-12T12:25:38.897Z,9.40
2022-12-12T12:28:09.475Z,9.40
2022-12-12T12:30:47.672Z,7.93
2022-12-12T12:33:34.828Z,7.40
2022-12-12T12:36:19.284Z,6.55
2022-12-12T12:39:00.428Z,7.30
2022-12-12T12:41:52.646Z,6.60
2022-12-12T12:44:27.631Z,6.75
2022-12-12T12:47:07.443Z,5.85
2022-12-12T12:49:45.580Z,6.17
2022-12-12T12:52:24.538Z,5.80
2022-12-12T12:55:00.021Z,5.47
2022-12-12T12:57:35.787Z,5.10
2022-12-12T13:00:18.868Z,5.28
2022-12-12T13:02:59.526Z,6.22
2022-12-12T13:05:39.735Z,5.80
2022-12-12T13:08:17.922Z,5.90
2022-12-12T13:10:55.967Z,5.00
2022-12-12T13:13:34.310Z,5.80
2022-12-12T13:16:10.934Z,4.97
2022-12-12T13:18:49.061Z,5.13
2022-12-12T13:21:31.172Z,4.65
2022-12-12T13:24:07.443Z,4.38
2022-12-12T13:26:47.187Z,3.90
2022-12-12T13:29:59.875Z,3.80
2022-12-12T13:32:34.055Z,4.15
2022-12-12T13:35:09.583Z,4.22
2022-12-12T13:37:51.163Z,4.18
2022-12-12T13:40:30.921Z,4.30
2022-12-12T13:43:10.141Z,4.20
2022-12-12T13:45:47.636Z,4.63
2022-12-12T13:48:40.201Z,4.28
2022-12-12T13:51:43.662Z,4.77
2022-12-12T13:54:48.924Z,5.05
2022-12-12T13:57:33.853Z,5.40
2022-12-12T14:00:29.160Z,4.70
2022-12-12T14:03:06.618Z,4.60
2022-12-12T14:05:45.173Z,5.50
2022-12-12T14:08:27.494Z,5.32
2022-12-12T14:11:07.753Z,4.20
2022-12-12T14:13:47.610Z,4.60
2022-12-12T14:16:24.878Z,4.70
2022-12-12T14:19:08.180Z,4.97
2022-12-12T14:21:47.839Z,4.70
2022-12-12T14:24:52.480Z,4.70
2022-12-12T14:27:59.559Z,4.55
2022-12-12T14:30:45.356Z,5.05
2022-12-12T14:33:49.715Z,4.73
2022-12-12T14:36:20.491Z,4.40
2022-12-12T14:38:58.072Z,5.30
2022-12-12T14:41:37.546Z,5.05
2022-12-12T14:44:37.559Z,5.53
2022-12-12T14:47:16.994Z,4.22
2022-12-12T14:49:51.350Z,4.65
2022-12-12T14:52:24.624Z,5.40
2022-12-12T14:54:59.202Z,4.70
2022-12-12T15:00:19.259Z,5.75
2022-12-12T15:02:51.339Z,5.68
2022-12-12T15:05:28.502Z,4.90
2022-12-12T15:08:03.820Z,5.25
2022-12-12T15:10:38.211Z,4.80
2022-12-12T15:13:21.339Z,4.40
2022-12-12T15:15:55.702Z,5.15
2022-12-12T15:18:30.718Z,5.20
2022-12-12T15:21:07.840Z,4.95
2022-12-12T15:23:38.479Z,4.80
2022-12-12T15:26:19.545Z,6.03
2022-12-12T15:28:54.363Z,5.07
2022-12-12T15:31:29.024Z,4.65
2022-12-12T15:34:03.289Z,5.75
2022-12-12T15:36:39.720Z,5.78
2022-12-12T15:39:17.123Z,5.45
2022-12-12T15:41:51.534Z,4.75
2022-12-12T15:44:27.446Z,4.95
2022-12-12T15:47:02.120Z,4.82
2022-12-12T15:49:43.069Z,4.40
2022-12-12T15:52:16.228Z,4.67
2022-12-12T15:54:54.166Z,4.28
2022-12-12T15:57:27.563Z,5.07
2022-12-12T16:00:05.699Z,4.15
2022-12-12T16:02:42.635Z,4.40
2022-12-12T16:05:33.952Z,4.50
2022-12-12T16:08:40.017Z,4.45
2022-12-12T16:11:39.598Z,3.70
2022-12-12T16:14:37.111Z,3.35
2022-12-12T16:17:14.340Z,3.90
2022-12-12T16:19:50.101Z,2.88
2022-12-12T16:22:33.879Z,3.58
2022-12-12T16:25:21.534Z,4.00
2022-12-12T16:28:03.261Z,4.30
2022-12-12T16:30:37.514Z,5.13
2022-12-12T16:33:15.753Z,6.05
2022-12-12T16:35:50.802Z,5.57
2022-12-12T16:38:25.440Z,5.15
2022-12-12T16:41:02.253Z,5.00
2022-12-12T16:43:39.121Z,4.80
2022-12-12T16:46:16.519Z,5.05
2022-12-12T16:48:52.049Z,4.22
2022-12-12T16:51:29.143Z,3.55
2022-12-12T16:54:03.714Z,3.50
2022-12-12T16:56:39.038Z,4.63
2022-12-12T16:59:16.156Z,4.07
2022-12-12T17:01:50.741Z,3.73
2022-12-12T17:04:26.762Z,3.97
2022-12-12T17:09:36.020Z,4.20
2022-12-12T17:12:13.416Z,4.00
2022-12-12T17:14:51.344Z,3.85
2022-12-12T17:17:25.366Z,3.67
2022-12-12T17:19:59.321Z,3.45
2022-12-12T17:22:34.147Z,4.35
2022-12-12T17:25:10.154Z,4.60
2022-12-12T17:27:44.641Z,4.73
2022-12-12T17:30:22.485Z,4.65
2022-12-12T17:35:46.150Z,4.93
2022-12-12T17:38:20.595Z,5.00
2022-12-12T17:40:57.157Z,5.10
2022-12-12T17:43:29.832Z,4.15
2022-12-12T17:46:08.211Z,5.10
2022-12-12T17:48:42.934Z,3.88
2022-12-12T17:51:17.737Z,5.38
2022-12-12T17:53:52.826Z,5.40
2022-12-12T17:56:27.786Z,5.00
2022-12-12T17:59:06.094Z,5.28
2022-12-12T18:01:43.175Z,4.90
2022-12-12T18:04:20.825Z,4.60
2022-12-12T18:06:56.678Z,4.85
2022-12-12T18:09:31.658Z,4.57
2022-12-12T18:12:07.609Z,5.65
2022-12-12T18:14:43.113Z,4.97
2022-12-12T18:17:21.697Z,4.95
2022-12-12T18:19:57.271Z,5.28
2022-12-12T18:22:32.256Z,4.87
2022-12-12T18:25:09.946Z,7.33
2022-12-12T18:27:44.396Z,5.60
2022-12-12T18:30:20.417Z,5.75
2022-12-12T18:33:02.892Z,5.90
2022-12-12T18:35:38.784Z,5.60
2022-12-12T18:38:14.566Z,4.35
2022-12-12T18:40:49.759Z,6.10
2022-12-12T18:43:26.101Z,5.87
2022-12-12T18:46:05.077Z,6.10
2022-12-12T18:48:43.809Z,6.25
2022-12-12T18:51:22.999Z,6.23
2022-12-12T18:53:58.337Z,6.55
2022-12-12T18:56:33.705Z,7.07
2022-12-12T18:59:09.948Z,5.78
2022-12-12T19:01:46.777Z,5.40
2022-12-12T19:04:25.375Z,6.05
2022-12-12T19:07:02.453Z,6.53
2022-12-12T19:09:38.664Z,6.32
2022-12-12T19:17:46.102Z,6.10
2022-12-12T19:20:24.718Z,5.75
2022-12-12T19:22:58.261Z,5.80
2022-12-12T19:25:37.641Z,6.20
2022-12-12T19:28:15.291Z,6.72
2022-12-12T19:30:49.434Z,5.22
2022-12-12T19:33:24.004Z,7.05
2022-12-12T19:36:01.035Z,5.07
2022-12-12T19:38:36.090Z,5.90
2022-12-12T19:41:11.420Z,6.25
2022-12-12T19:43:45.377Z,6.30
2022-12-12T19:46:20.169Z,6.63
2022-12-12T19:48:57.695Z,6.68
2022-12-12T19:51:36.470Z,5.88
2022-12-12T19:54:11.635Z,7.30
2022-12-12T19:56:47.029Z,7.00
2022-12-12T19:59:21.443Z,7.75
2022-12-12T20:01:56.143Z,7.13
2022-12-12T20:04:30.703Z,7.00
2022-12-12T20:07:08.791Z,7.63
2022-12-12T20:09:43.082Z,6.70
2022-12-12T20:12:17.834Z,7.80
2022-12-12T20:14:52.660Z,7.72
2022-12-12T20:17:27.581Z,8.70
2022-12-12T20:20:04.628Z,9.32
2022-12-12T20:22:44.020Z,8.85
2022-12-12T20:25:21.232Z,8.90
2022-12-12T20:27:57.202Z,8.77
2022-12-12T20:30:32.480Z,9.40
2022-12-12T20:33:09.594Z,9.23
2022-12-12T20:35:44.746Z,10.45
2022-12-12T20:38:25.030Z,10.27
2022-12-12T20:41:02.099Z,9.25
2022-12-12T20:43:39.248Z,8.65
2022-12-12T20:46:16.743Z,8.93
2022-12-12T20:48:50.479Z,10.60
2022-12-12T20:51:54.915Z,8.82
2022-12-12T20:54:28.446Z,8.35
2022-12-12T20:57:04.345Z,7.65
2022-12-12T20:59:40.261Z,8.35
2022-12-12T21:02:16.466Z,10.18
2022-12-12T21:04:48.725Z,12.83
2022-12-12T21:07:25.981Z,14.50
2022-12-12T21:10:03.399Z,12.90
2022-12-12T21:12:38.167Z,9.43
2022-12-12T21:15:14.712Z,8.32
2022-12-12T21:17:50.483Z,7.93
2022-12-12T21:20:25.912Z,6.80
2022-12-12T21:23:03.004Z,8.70
2022-12-12T21:25:41.911Z,10.23
2022-12-12T21:28:17.246Z,10.93
2022-12-12T21:30:52.170Z,9.25
2022-12-12T21:33:26.379Z,9.25
2022-12-12T21:36:01.731Z,8.93
2022-12-12T21:38:36.831Z,8.32
2022-12-12T21:41:15.321Z,8.20
2022-12-12T21:43:49.745Z,8.80
2022-12-12T21:46:27.913Z,9.13
2022-12-12T21:49:14.459Z,8.10
2022-12-12T21:51:48.602Z,7.85
2022-12-12T21:54:24.675Z,8.20
2022-12-12T21:57:02.537Z,7.05
2022-12-12T21:59:38.900Z,8.38
2022-12-12T22:02:13.780Z,7.45
2022-12-12T22:04:48.326Z,7.60
2022-12-12T22:07:23.412Z,7.90
2022-12-12T22:10:11.386Z,8.77
2022-12-12T22:12:57.013Z,8.20
2022-12-12T22:15:33.058Z,8.32
2022-12-12T22:18:07.496Z,7.93
2022-12-12T22:20:42.174Z,8.80
2022-12-12T22:23:16.683Z,8.18
2022-12-12T22:25:51.248Z,8.80
2022-12-12T22:28:28.762Z,7.40
2022-12-12T22:31:07.077Z,8.20
2022-12-12T22:33:41.153Z,7.83
2022-12-12T22:36:15.134Z,8.05
2022-12-12T22:38:51.400Z,8.40
2022-12-12T22:41:25.577Z,8.03
2022-12-12T22:44:06.107Z,9.00
2022-12-12T22:46:43.878Z,7.35
2022-12-12T22:49:19.550Z,8.77
2022-12-12T22:51:52.936Z,7.93
2022-12-12T22:54:27.340Z,8.00
2022-12-12T22:57:01.070Z,8.55
2022-12-12T22:59:38.206Z,7.00
2022-12-12T23:02:11.286Z,7.32
2022-12-12T23:04:45.296Z,8.50
2022-12-12T23:07:19.143Z,9.50
2022-12-12T23:09:55.597Z,9.05
2022-12-12T23:12:31.092Z,8.60
2022-12-12T23:15:10.404Z,7.55
2022-12-12T23:17:47.124Z,7.95
2022-12-12T23:20:23.679Z,8.85
2022-12-12T23:22:58.378Z,8.90
2022-12-12T23:25:32.428Z,9.47
2022-12-12T23:28:09.401Z,9.60
2022-12-12T23:30:51.430Z,7.90
2022-12-12T23:33:25.899Z,9.32
2022-12-12T23:36:00.921Z,9.80
2022-12-12T23:38:35.238Z,8.93
2022-12-12T23:41:09.771Z,10.80
2022-12-12T23:43:42.835Z,9.63
2022-12-12T23:46:32.313Z,9.93
2022-12-12T23:49:07.448Z,9.53
2022-12-12T23:51:42.466Z,9.50
2022-12-12T23:54:17.777Z,10.10
2022-12-12T23:56:50.857Z,8.70
2022-12-12T23:59:23.659Z,8.80
